createdAt,value
2023-08-06T00:01:40.118Z,100236.23
2023-08-06T00:04:13.059Z,100230.21
2023-08-06T00:06:42.459Z,100226.33
2023-08-06T00:09:15.975Z,100229.04
2023-08-06T00:11:49.269Z,100229.08
2023-08-06T00:14:19.684Z,100222.13
2023-08-06T00:16:48.278Z,100216.36
2023-08-06T00:19:17.671Z,100213.66
2023-08-06T00:21:52.148Z,100210.88
2023-08-06T00:24:41.776Z,100206.03
2023-08-06T00:27:15.172Z,100198.77
2023-08-06T00:30:02.396Z,100201.44
2023-08-06T00:32:43.047Z,100196.84
2023-08-06T00:35:13.668Z,100198.65
2023-08-06T00:37:45.410Z,100197.67
2023-08-06T00:40:18.259Z,100198.44
2023-08-06T00:42:48.370Z,100195.05
2023-08-06T00:45:24.636Z,100189.54
2023-08-06T00:47:58.223Z,100187.66
2023-08-06T00:50:27.112Z,100189.46
2023-08-06T00:52:55.392Z,100187.25
2023-08-06T00:55:28.605Z,100182.77
2023-08-06T00:57:57.993Z,100181.53
2023-08-06T01:00:31.263Z,100179.42
2023-08-06T01:02:59.291Z,100175.63
2023-08-06T01:05:46.796Z,100173.38
2023-08-06T01:08:23.764Z,100173.17
2023-08-06T01:11:23.102Z,100173.84
2023-08-06T01:14:21.159Z,100168.26
2023-08-06T01:16:51.593Z,100164.96
2023-08-06T01:19:25.424Z,100158.73
2023-08-06T01:22:00.419Z,100158.59
2023-08-06T01:24:37.815Z,100158.86
2023-08-06T01:27:10.401Z,100157.84
2023-08-06T01:29:51.879Z,100152.72
2023-08-06T01:32:28.884Z,100149.21
2023-08-06T01:35:03.696Z,100145.76
2023-08-06T01:37:34.642Z,100147.23
2023-08-06T01:40:11.499Z,100147.70
2023-08-06T01:42:42.153Z,100142.61
2023-08-06T01:45:14.372Z,100138.45
2023-08-06T01:47:42.495Z,100136.10
2023-08-06T01:50:21.713Z,100134.64
2023-08-06T01:53:04.451Z,100135.55
2023-08-06T01:55:36.302Z,100137.14
2023-08-06T01:58:08.159Z,100136.69
2023-08-06T02:00:51.247Z,100135.27
2023-08-06T02:03:19.685Z,100130.97
2023-08-06T02:05:59.414Z,100128.19
2023-08-06T02:08:28.944Z,100125.81
2023-08-06T02:10:57.202Z,100127.60
2023-08-06T02:13:29.763Z,100127.70
2023-08-06T02:16:00.219Z,100125.98
2023-08-06T02:18:36.571Z,100127.15
2023-08-06T02:21:09.456Z,100129.10
2023-08-06T02:23:38.057Z,100126.44
2023-08-06T02:26:20.246Z,100130.00
2023-08-06T02:29:10.744Z,100123.05
2023-08-06T02:31:46.534Z,100124.63
2023-08-06T02:34:16.127Z,100125.71
2023-08-06T02:36:47.988Z,100124.15
2023-08-06T02:39:28.434Z,100117.70
2023-08-06T02:42:02.339Z,100120.46
2023-08-06T02:44:38.234Z,100120.01
2023-08-06T02:47:11.912Z,100123.78
2023-08-06T02:49:58.626Z,100124.37
2023-08-06T02:52:29.653Z,100126.08
2023-08-06T02:55:19.821Z,100129.30
2023-08-06T02:57:55.194Z,100127.77
2023-08-06T03:00:49.542Z,100128.55
2023-08-06T03:03:55.237Z,100128.52
2023-08-06T03:06:55.468Z,100128.47
2023-08-06T03:09:49.136Z,100128.69
2023-08-06T03:12:26.587Z,100123.85
2023-08-06T03:15:24.240Z,100121.91
2023-08-06T03:18:29.876Z,100118.71
2023-08-06T03:21:06.753Z,100117.20
2023-08-06T03:24:00.478Z,100116.06
2023-08-06T03:26:46.316Z,100117.48
2023-08-06T03:29:58.718Z,100113.95
2023-08-06T03:32:55.697Z,100111.19
2023-08-06T03:35:54.977Z,100115.54
2023-08-06T03:38:58.458Z,100119.46
2023-08-06T03:41:35.040Z,100116.63
2023-08-06T03:44:15.706Z,100118.91
2023-08-06T03:46:55.773Z,100123.83
2023-08-06T03:49:31.099Z,100121.30
2023-08-06T03:52:12.091Z,100120.61
2023-08-06T03:54:55.924Z,100122.80
2023-08-06T03:57:46.224Z,100120.78
2023-08-06T04:00:21.458Z,100115.36
2023-08-06T04:02:51.668Z,100115.35
2023-08-06T04:05:23.342Z,100112.73
2023-08-06T04:07:56.428Z,100108.10
2023-08-06T04:10:49.276Z,100114.33
2023-08-06T04:13:22.130Z,100116.86
2023-08-06T04:15:50.041Z,100121.80
2023-08-06T04:18:17.910Z,100120.23
2023-08-06T04:20:47.067Z,100112.15
2023-08-06T04:23:15.791Z,100111.33
2023-08-06T04:25:48.882Z,100107.42
2023-08-06T04:28:16.846Z,100108.52
2023-08-06T04:31:13.355Z,100109.38
2023-08-06T04:33:46.276Z,100102.73
2023-08-06T04:36:26.874Z,100101.08
2023-08-06T04:39:02.465Z,100094.02
2023-08-06T04:41:40.112Z,100094.14
2023-08-06T04:44:44.529Z,100090.22
2023-08-06T04:47:18.783Z,100088.89
2023-08-06T04:49:57.282Z,100082.02
2023-08-06T04:52:38.179Z,100078.73
2023-08-06T04:55:18.273Z,100069.70
2023-08-06T04:57:48.604Z,100068.92
2023-08-06T05:00:20.646Z,100061.80
2023-08-06T05:02:59.118Z,100055.52
2023-08-06T05:05:26.987Z,100049.02
2023-08-06T05:08:02.090Z,100050.77
2023-08-06T05:10:36.754Z,100047.66
2023-08-06T05:13:52.440Z,100040.23
2023-08-06T05:16:35.378Z,100042.87
2023-08-06T05:19:08.831Z,100039.73
2023-08-06T05:21:37.426Z,100036.10
2023-08-06T05:24:06.615Z,100032.92
2023-08-06T05:26:39.769Z,100032.02
2023-08-06T05:29:13.713Z,100028.19
2023-08-06T05:31:43.964Z,100024.70
2023-08-06T05:34:12.318Z,100021.73
2023-08-06T05:36:44.419Z,100015.65
2023-08-06T05:39:12.970Z,100013.02
2023-08-06T05:41:41.245Z,100012.14
2023-08-06T05:44:22.737Z,100009.10
2023-08-06T05:46:55.721Z,100010.04
2023-08-06T05:49:25.330Z,100010.62
2023-08-06T05:51:55.071Z,100009.91
2023-08-06T05:54:32.842Z,100007.16
2023-08-06T05:57:00.717Z,100003.79
2023-08-06T05:59:30.829Z,99998.48
2023-08-06T06:02:15.035Z,99994.71
2023-08-06T06:04:46.212Z,99983.77
2023-08-06T06:07:16.519Z,99982.89
2023-08-06T06:09:44.626Z,99980.94
2023-08-06T06:12:17.513Z,99975.50
2023-08-06T06:14:51.345Z,99975.14
2023-08-06T06:17:22.072Z,99973.13
2023-08-06T06:19:50.125Z,99976.20
2023-08-06T06:22:18.734Z,99972.50
2023-08-06T06:24:46.578Z,99969.56
2023-08-06T06:27:14.453Z,99966.59
2023-08-06T06:29:52.557Z,99958.98
2023-08-06T06:32:27.826Z,99957.69
2023-08-06T06:34:55.980Z,99959.23
2023-08-06T06:37:55.224Z,99959.50
2023-08-06T06:40:51.335Z,99957.95
2023-08-06T06:43:19.890Z,99958.19
2023-08-06T06:45:47.882Z,99963.11
2023-08-06T06:48:16.035Z,99965.71
2023-08-06T06:50:45.051Z,99968.34
2023-08-06T06:53:13.107Z,99967.41
2023-08-06T06:55:41.493Z,99966.81
2023-08-06T06:58:09.867Z,99965.92
2023-08-06T07:00:39.173Z,99958.63
2023-08-06T07:03:11.240Z,99958.08
2023-08-06T07:05:39.231Z,99956.04
2023-08-06T07:08:09.440Z,99956.94
2023-08-06T07:10:37.303Z,99945.80
2023-08-06T07:13:12.233Z,99945.06
2023-08-06T07:15:40.314Z,99942.95
2023-08-06T07:18:08.579Z,99937.46
2023-08-06T07:20:36.460Z,99938.73
2023-08-06T07:23:05.517Z,99935.21
2023-08-06T07:25:34.547Z,99934.27
2023-08-06T07:28:03.736Z,99932.40
2023-08-06T07:30:40.334Z,99928.63
2023-08-06T07:33:08.485Z,99928.55
2023-08-06T07:35:41.278Z,99921.10
2023-08-06T07:38:10.571Z,99918.96
2023-08-06T07:40:38.954Z,99917.52
2023-08-06T07:43:06.970Z,99914.70
2023-08-06T07:45:40.632Z,99913.70
2023-08-06T07:48:08.532Z,99913.16
2023-08-06T07:50:36.463Z,99910.13
2023-08-06T07:53:05.051Z,99910.16
2023-08-06T07:55:46.303Z,99906.50
2023-08-06T07:58:16.452Z,99904.59
2023-08-06T08:00:51.613Z,99902.73
2023-08-06T08:03:25.430Z,99902.39
2023-08-06T08:05:57.672Z,99896.16
2023-08-06T08:08:28.198Z,99890.00
2023-08-06T08:10:56.810Z,99885.95
2023-08-06T08:13:29.580Z,99879.70
2023-08-06T08:16:00.611Z,99880.89
2023-08-06T08:18:32.982Z,99879.88
2023-08-06T08:21:01.476Z,99877.38
2023-08-06T08:23:33.776Z,99873.76
2023-08-06T08:26:10.002Z,99870.60
2023-08-06T08:28:42.812Z,99866.80
2023-08-06T08:31:25.090Z,99867.09
2023-08-06T08:33:55.876Z,99856.50
2023-08-06T08:36:33.436Z,99851.95
2023-08-06T08:39:08.660Z,99848.48
2023-08-06T08:41:47.901Z,99846.45
2023-08-06T08:44:30.615Z,99842.13
2023-08-06T08:47:20.619Z,99837.67
2023-08-06T08:49:49.460Z,99840.58
2023-08-06T08:52:17.469Z,99834.59
2023-08-06T08:54:45.345Z,99832.36
2023-08-06T08:57:18.011Z,99825.69
2023-08-06T09:00:03.906Z,99828.91
2023-08-06T09:02:36.285Z,99820.45
2023-08-06T09:05:05.058Z,99821.13
2023-08-06T09:07:56.284Z,99814.40
2023-08-06T09:10:27.570Z,99814.82
2023-08-06T09:13:03.076Z,99816.15
2023-08-06T09:15:38.059Z,99809.68
2023-08-06T09:18:15.175Z,99801.71
2023-08-06T09:20:43.865Z,99802.55
2023-08-06T09:23:11.899Z,99805.23
2023-08-06T09:25:48.226Z,99791.88
2023-08-06T09:28:23.876Z,99788.86
2023-08-06T09:30:57.194Z,99785.70
2023-08-06T09:33:34.154Z,99781.90
2023-08-06T09:36:22.513Z,99772.13
2023-08-06T09:38:50.375Z,99763.73
2023-08-06T09:41:31.044Z,99766.13
2023-08-06T09:44:01.158Z,99759.16
2023-08-06T09:46:29.848Z,99757.30
2023-08-06T09:48:58.434Z,99759.33
2023-08-06T09:51:36.769Z,99753.94
2023-08-06T09:54:27.453Z,99745.80
2023-08-06T09:56:57.815Z,99742.43
2023-08-06T09:59:30.968Z,99740.29
2023-08-06T10:01:59.878Z,99738.54
2023-08-06T10:04:43.201Z,99740.87
2023-08-06T10:07:19.277Z,99734.70
2023-08-06T10:09:47.716Z,99728.73
2023-08-06T10:12:15.711Z,99727.41
2023-08-06T10:15:03.158Z,99726.60
2023-08-06T10:17:45.224Z,99721.31
2023-08-06T10:22:15.674Z,99720.89
2023-08-06T10:24:50.480Z,99716.99
2023-08-06T10:27:39.978Z,99717.04
2023-08-06T10:30:28.039Z,99713.48
2023-08-06T10:32:59.237Z,99711.55
2023-08-06T10:35:55.936Z,99709.77
2023-08-06T10:38:37.718Z,99708.94
2023-08-06T10:41:12.964Z,99697.45
2023-08-06T10:43:41.642Z,99698.88
2023-08-06T10:46:28.672Z,99697.20
2023-08-06T10:48:59.899Z,99690.20
2023-08-06T10:51:37.354Z,99689.59
2023-08-06T10:54:17.446Z,99684.69
2023-08-06T10:56:50.602Z,99689.42
2023-08-06T10:59:27.026Z,99688.89
2023-08-06T11:01:56.279Z,99688.48
2023-08-06T11:04:32.064Z,99681.06
2023-08-06T11:06:59.930Z,99680.31
2023-08-06T11:09:48.686Z,99672.95
2023-08-06T11:12:25.450Z,99669.45
2023-08-06T11:15:00.720Z,99676.17
2023-08-06T11:17:34.089Z,99672.73
2023-08-06T11:20:07.509Z,99667.44
2023-08-06T11:22:43.871Z,99659.27
2023-08-06T11:25:19.112Z,99660.98
2023-08-06T11:27:58.600Z,99651.90
2023-08-06T11:30:40.599Z,99644.57
2023-08-06T11:33:08.847Z,99641.16
2023-08-06T11:35:37.333Z,99639.55
2023-08-06T11:38:07.349Z,99637.28
2023-08-06T11:40:47.695Z,99637.86
2023-08-06T11:43:15.664Z,99632.67
2023-08-06T11:45:45.705Z,99632.64
2023-08-06T11:48:25.954Z,99630.02
2023-08-06T11:50:58.646Z,99632.46
2023-08-06T11:53:28.907Z,99632.02
2023-08-06T11:56:04.906Z,99625.10
2023-08-06T11:58:42.050Z,99618.11
2023-08-06T12:01:18.458Z,99622.05
2023-08-06T12:03:52.515Z,99618.35
2023-08-06T12:06:30.607Z,99614.39
2023-08-06T12:09:15.270Z,99612.65
2023-08-06T12:11:46.687Z,99614.31
2023-08-06T12:14:19.779Z,99609.55
2023-08-06T12:16:50.527Z,99606.53
2023-08-06T12:19:27.810Z,99600.62
2023-08-06T12:22:02.163Z,99601.15
2023-08-06T12:24:37.568Z,99601.63
2023-08-06T12:27:15.324Z,99603.16
2023-08-06T12:29:54.680Z,99599.79
2023-08-06T12:32:30.732Z,99587.44
2023-08-06T12:34:58.637Z,99581.45
2023-08-06T12:37:30.775Z,99579.27
2023-08-06T12:40:28.817Z,99573.55
2023-08-06T12:43:01.096Z,99566.94
2023-08-06T12:45:28.969Z,99564.59
2023-08-06T12:47:57.226Z,99562.98
2023-08-06T12:50:29.879Z,99558.80
2023-08-06T12:53:00.527Z,99558.35
2023-08-06T12:55:41.936Z,99555.33
2023-08-06T12:58:10.701Z,99553.46
2023-08-06T13:03:32.284Z,99547.80
2023-08-06T13:06:21.429Z,99546.02
2023-08-06T13:08:49.732Z,99541.46
2023-08-06T13:11:20.584Z,99541.54
2023-08-06T13:14:00.731Z,99534.48
2023-08-06T13:16:33.248Z,99536.13
2023-08-06T13:19:06.784Z,99531.80
2023-08-06T13:22:05.257Z,99535.67
2023-08-06T13:24:38.189Z,99527.66
2023-08-06T13:27:11.360Z,99528.64
2023-08-06T13:29:49.120Z,99527.92
2023-08-06T13:32:22.678Z,99520.62
2023-08-06T13:34:53.933Z,99523.48
2023-08-06T13:37:29.688Z,99516.45
2023-08-06T13:39:57.740Z,99509.83
2023-08-06T13:42:26.076Z,99511.98
2023-08-06T13:45:15.827Z,99512.61
2023-08-06T13:47:49.048Z,99503.63
2023-08-06T13:50:18.901Z,99500.41
2023-08-06T13:52:59.058Z,99495.45
2023-08-06T13:55:34.135Z,99496.36
2023-08-06T13:58:04.845Z,99498.98
2023-08-06T14:00:39.968Z,99502.35
2023-08-06T14:03:28.356Z,99499.83
2023-08-06T14:05:59.094Z,99493.84
2023-08-06T14:08:26.942Z,99493.80
2023-08-06T14:10:54.815Z,99491.67
2023-08-06T14:13:23.188Z,99489.61
2023-08-06T14:15:56.628Z,99490.60
2023-08-06T14:18:24.490Z,99488.86
2023-08-06T14:20:52.205Z,99487.09
2023-08-06T14:23:19.977Z,99486.54
2023-08-06T14:26:12.194Z,99487.09
2023-08-06T14:28:43.080Z,99477.84
2023-08-06T14:31:18.718Z,99488.23
2023-08-06T14:33:46.643Z,99477.37
2023-08-06T14:36:14.325Z,99477.86
2023-08-06T14:38:53.985Z,99483.48
2023-08-06T14:41:26.089Z,99484.33
2023-08-06T14:43:55.115Z,99480.02
2023-08-06T14:46:30.815Z,99477.65
2023-08-06T14:49:04.466Z,99471.60
2023-08-06T14:51:35.661Z,99465.46
2023-08-06T14:54:08.501Z,99463.62
2023-08-06T14:56:36.377Z,99463.41
2023-08-06T14:59:04.666Z,99454.58
2023-08-06T15:01:32.431Z,99462.52
2023-08-06T15:04:03.591Z,99460.95
2023-08-06T15:06:37.405Z,99455.08
2023-08-06T15:09:05.168Z,99454.65
2023-08-06T15:11:33.090Z,99449.63
2023-08-06T15:14:04.151Z,99454.39
2023-08-06T15:16:37.943Z,99454.20
2023-08-06T15:19:05.767Z,99451.62
2023-08-06T15:21:33.686Z,99452.47
2023-08-06T15:24:04.402Z,99446.20
2023-08-06T15:26:32.106Z,99442.75
2023-08-06T15:28:59.939Z,99439.73
2023-08-06T15:31:36.859Z,99444.98
2023-08-06T15:34:06.808Z,99442.52
2023-08-06T15:36:36.826Z,99444.40
2023-08-06T15:39:07.599Z,99444.38
2023-08-06T15:41:42.556Z,99445.91
2023-08-06T15:44:18.928Z,99444.93
2023-08-06T15:46:46.688Z,99441.20
2023-08-06T15:49:24.878Z,99444.98
2023-08-06T15:51:56.517Z,99442.15
2023-08-06T15:54:24.208Z,99444.17
2023-08-06T15:56:51.999Z,99439.41
2023-08-06T15:59:32.291Z,99438.70
2023-08-06T16:02:08.456Z,99435.08
2023-08-06T16:04:42.383Z,99435.36
2023-08-06T16:07:10.222Z,99434.88
2023-08-06T16:09:38.084Z,99435.95
2023-08-06T16:12:18.571Z,99430.15
2023-08-06T16:14:47.292Z,99428.86
2023-08-06T16:17:29.908Z,99428.22
2023-08-06T16:20:00.325Z,99426.02
2023-08-06T16:22:43.328Z,99419.89
2023-08-06T16:25:22.200Z,99417.85
2023-08-06T16:27:51.348Z,99416.48
2023-08-06T16:30:24.410Z,99414.98
2023-08-06T16:32:57.395Z,99415.28
2023-08-06T16:35:27.648Z,99416.70
2023-08-06T16:38:01.836Z,99420.25
2023-08-06T16:40:37.333Z,99425.21
2023-08-06T16:43:10.824Z,99423.52
2023-08-06T16:45:43.446Z,99423.83
2023-08-06T16:48:11.153Z,99419.80
2023-08-06T16:50:43.784Z,99417.77
2023-08-06T16:53:13.674Z,99416.98
2023-08-06T16:55:41.362Z,99414.88
2023-08-06T16:58:09.127Z,99415.39
2023-08-06T17:00:36.864Z,99418.93
2023-08-06T17:03:05.027Z,99416.95
2023-08-06T17:05:33.061Z,99418.77
2023-08-06T17:08:01.277Z,99419.09
2023-08-06T17:10:31.284Z,99424.82
2023-08-06T17:13:20.077Z,99426.21
2023-08-06T17:15:55.981Z,99425.73
2023-08-06T17:18:28.609Z,99421.55
2023-08-06T17:20:57.072Z,99419.55
2023-08-06T17:23:24.807Z,99417.57
2023-08-06T17:25:54.231Z,99416.31
2023-08-06T17:28:21.923Z,99418.13
2023-08-06T17:30:51.830Z,99415.17
2023-08-06T17:33:19.580Z,99415.85
2023-08-06T17:35:47.384Z,99415.75
2023-08-06T17:38:15.062Z,99417.35
2023-08-06T17:40:43.813Z,99413.30
2023-08-06T17:43:12.803Z,99418.40
2023-08-06T17:45:40.511Z,99417.55
2023-08-06T17:48:08.228Z,99421.01
2023-08-06T17:50:35.926Z,99418.98
2023-08-06T17:53:03.693Z,99421.33
2023-08-06T17:55:40.708Z,99418.77
2023-08-06T17:58:14.127Z,99417.64
2023-08-06T18:00:44.155Z,99415.98
2023-08-06T18:03:18.670Z,99413.26
2023-08-06T18:05:58.388Z,99414.64
2023-08-06T18:08:31.805Z,99417.81
2023-08-06T18:11:05.235Z,99413.81
2023-08-06T18:13:32.940Z,99413.17
2023-08-06T18:16:02.893Z,99410.20
2023-08-06T18:18:31.292Z,99405.67
2023-08-06T18:20:59.275Z,99401.09
2023-08-06T18:23:27.322Z,99401.71
2023-08-06T18:25:57.581Z,99400.45
2023-08-06T18:28:27.550Z,99399.80
2023-08-06T18:30:55.402Z,99399.36
2023-08-06T18:33:28.236Z,99392.42
2023-08-06T18:35:59.685Z,99393.73
2023-08-06T18:38:27.825Z,99388.66
2023-08-06T18:40:59.488Z,99387.86
2023-08-06T18:43:29.462Z,99384.44
2023-08-06T18:45:57.768Z,99388.29
2023-08-06T18:48:26.065Z,99385.38
2023-08-06T18:50:57.548Z,99383.91
2023-08-06T18:53:39.460Z,99381.71
2023-08-06T18:56:07.217Z,99377.62
2023-08-06T18:58:38.045Z,99381.63
2023-08-06T19:01:05.749Z,99379.20
2023-08-06T19:03:36.246Z,99378.40
2023-08-06T19:06:05.846Z,99377.23
2023-08-06T19:08:33.677Z,99374.92
2023-08-06T19:11:01.485Z,99369.69
2023-08-06T19:13:35.037Z,99367.57
2023-08-06T19:16:03.960Z,99366.05
2023-08-06T19:18:36.097Z,99364.13
2023-08-06T19:21:03.885Z,99367.13
2023-08-06T19:23:33.816Z,99363.11
2023-08-06T19:26:03.412Z,99362.24
2023-08-06T19:28:31.430Z,99360.12
2023-08-06T19:31:04.476Z,99358.23
2023-08-06T19:33:32.279Z,99356.52
2023-08-06T19:36:00.158Z,99357.70
2023-08-06T19:38:27.896Z,99354.53
2023-08-06T19:41:06.616Z,99354.57
2023-08-06T19:43:37.080Z,99354.15
2023-08-06T19:46:09.866Z,99349.42
2023-08-06T19:48:43.377Z,99352.48
2023-08-06T19:51:13.311Z,99352.83
2023-08-06T19:53:43.849Z,99353.98
2023-08-06T19:56:11.656Z,99352.08
2023-08-06T19:58:41.616Z,99347.93
2023-08-06T20:01:14.602Z,99346.59
2023-08-06T20:03:48.423Z,99342.55
2023-08-06T20:06:20.828Z,99340.32
2023-08-06T20:08:48.557Z,99337.14
2023-08-06T20:11:24.502Z,99337.14
2023-08-06T20:13:52.349Z,99330.95
2023-08-06T20:16:20.085Z,99324.10
2023-08-06T20:18:47.840Z,99321.66
2023-08-06T20:21:15.571Z,99318.16
2023-08-06T20:23:51.121Z,99310.39
2023-08-06T20:26:18.841Z,99308.04
2023-08-06T20:28:51.425Z,99306.37
2023-08-06T20:31:21.510Z,99306.06
2023-08-06T20:33:55.807Z,99304.84
2023-08-06T20:36:29.712Z,99302.27
2023-08-06T20:38:58.444Z,99303.06
2023-08-06T20:41:35.130Z,99300.46
2023-08-06T20:44:07.719Z,99299.50
2023-08-06T20:46:35.440Z,99297.56
2023-08-06T20:49:03.163Z,99295.92
2023-08-06T20:51:35.817Z,99293.76
2023-08-06T20:54:09.272Z,99290.83
2023-08-06T20:56:37.225Z,99292.23
2023-08-06T20:59:05.666Z,99288.75
2023-08-06T21:01:33.552Z,99285.11
2023-08-06T21:04:01.239Z,99282.92
2023-08-06T21:06:33.830Z,99280.45
2023-08-06T21:09:16.282Z,99277.13
2023-08-06T21:11:44.014Z,99273.11
2023-08-06T21:14:16.726Z,99272.90
2023-08-06T21:16:44.787Z,99267.69
2023-08-06T21:19:18.237Z,99265.91
2023-08-06T21:21:47.430Z,99261.27
2023-08-06T21:24:17.562Z,99256.81
2023-08-06T21:26:45.250Z,99257.14
2023-08-06T21:29:18.072Z,99255.48
2023-08-06T21:31:49.343Z,99253.48
2023-08-06T21:34:17.134Z,99254.97
2023-08-06T21:36:55.980Z,99251.09
2023-08-06T21:39:23.802Z,99249.03
2023-08-06T21:41:56.756Z,99247.69
2023-08-06T21:44:26.525Z,99249.11
2023-08-06T21:46:54.298Z,99243.18
2023-08-06T21:49:29.417Z,99241.86
2023-08-06T21:52:10.152Z,99240.85
2023-08-06T21:54:40.275Z,99234.29
2023-08-06T21:57:12.329Z,99233.83
2023-08-06T21:59:43.481Z,99227.59
2023-08-06T22:02:16.110Z,99224.77
2023-08-06T22:04:48.730Z,99227.18
2023-08-06T22:07:16.600Z,99228.92
2023-08-06T22:09:58.260Z,99227.58
2023-08-06T22:12:26.012Z,99227.08
2023-08-06T22:14:54.981Z,99226.02
2023-08-06T22:17:35.214Z,99223.60
2023-08-06T22:20:06.300Z,99225.94
2023-08-06T22:22:40.581Z,99225.39
2023-08-06T22:25:14.396Z,99223.89
2023-08-06T22:27:47.371Z,99223.86
2023-08-06T22:30:15.985Z,99223.98
2023-08-06T22:32:48.777Z,99226.58
2023-08-06T22:35:18.145Z,99225.80
2023-08-06T22:39:31.083Z,99223.25
2023-08-06T22:42:01.192Z,99215.95
2023-08-06T22:44:29.062Z,99212.00
2023-08-06T22:47:01.856Z,99211.73
2023-08-06T22:49:39.643Z,99208.36
2023-08-06T22:52:24.304Z,99206.80
2023-08-06T22:55:11.607Z,99211.73
2023-08-06T22:57:49.219Z,99211.45
2023-08-06T23:00:22.127Z,99210.40
2023-08-06T23:03:09.063Z,99214.02
2023-08-06T23:05:38.855Z,99207.75
2023-08-06T23:08:07.093Z,99205.86
2023-08-06T23:10:36.212Z,99206.38
2023-08-06T23:13:10.128Z,99202.14
2023-08-06T23:15:38.228Z,99202.48
2023-08-06T23:18:06.274Z,99205.85
2023-08-06T23:20:35.590Z,99207.52
2023-08-06T23:23:24.747Z,99210.83
2023-08-06T23:25:52.612Z,99210.27
2023-08-06T23:31:09.711Z,99205.48
2023-08-06T23:33:44.387Z,99205.89
2023-08-06T23:36:12.757Z,99206.36
2023-08-06T23:38:40.725Z,99206.19
2023-08-06T23:41:13.835Z,99205.58
2023-08-06T23:44:08.713Z,99205.19
2023-08-06T23:46:42.741Z,99198.11
2023-08-06T23:49:12.545Z,99206.98
2023-08-06T23:51:44.214Z,99201.60
2023-08-06T23:54:26.506Z,99203.19
2023-08-06T23:56:58.786Z,99201.88
2023-08-06T23:59:42.134Z,99201.06
